Time;durP1;ratioP1;P1;durP2;ratioP2;P2;SDS_P1;SDS_P2;PMS_P1;PMS_P2;Temp;Humidity;BMP_temperature;BMP_pressure;BME280_temperature;BME280_humidity;BME280_pressure;Samples;Min_cycle;Max_cycle;Signal;HPM_P1;HPM_P2
2022/12/26 00:01:08;;;;;;;22.80;16.07;;;;;;;;;;5034584;28;20477;-67
2022/12/26 00:03:35;;;;;;;21.83;17.80;;;;;;;;;;5034728;28;20470;-67
2022/12/26 00:06:02;;;;;;;27.80;18.60;;;;;;;;;;5034523;28;20537;-67
2022/12/26 00:08:29;;;;;;;24.80;18.07;;;;;;;;;;5034384;28;20489;-67
2022/12/26 00:10:58;;;;;;;24.67;18.93;;;;;;;;;;5035059;28;20565;-67
2022/12/26 00:13:25;;;;;;;22.17;17.67;;;;;;;;;;5035056;28;20443;-67
2022/12/26 00:15:52;;;;;;;26.97;19.40;;;;;;;;;;5034926;28;20449;-67
2022/12/26 00:18:19;;;;;;;21.50;17.63;;;;;;;;;;5034205;28;20947;-67
2022/12/26 00:20:46;;;;;;;24.10;17.23;;;;;;;;;;5034582;28;20803;-67
2022/12/26 00:23:14;;;;;;;29.93;18.20;;;;;;;;;;5034451;28;20444;-67
2022/12/26 00:25:41;;;;;;;23.17;18.67;;;;;;;;;;5034092;28;20498;-67
2022/12/26 00:28:09;;;;;;;25.77;19.50;;;;;;;;;;5034091;28;20441;-68
2022/12/26 00:30:38;;;;;;;23.30;19.60;;;;;;;;;;5034587;28;20818;-67
2022/12/26 00:33:05;;;;;;;30.17;19.67;;;;;;;;;;5034288;28;20767;-67
2022/12/26 00:35:32;;;;;;;30.77;20.60;;;;;;;;;;5033940;28;20974;-67
2022/12/26 00:37:59;;;;;;;26.10;19.17;;;;;;;;;;5034196;28;20487;-67
2022/12/26 00:40:26;;;;;;;28.63;18.77;;;;;;;;;;5034406;28;20450;-67
2022/12/26 00:42:53;;;;;;;31.70;20.77;;;;;;;;;;5034325;28;20444;-67
2022/12/26 00:45:22;;;;;;;28.73;20.27;;;;;;;;;;5034062;28;20481;-67
2022/12/26 00:47:49;;;;;;;30.33;19.87;;;;;;;;;;5033976;28;20873;-67
2022/12/26 00:50:16;;;;;;;28.63;21.63;;;;;;;;;;5034089;28;20439;-67
2022/12/26 00:52:44;;;;;;;27.73;20.83;;;;;;;;;;5033900;28;20453;-68
2022/12/26 00:55:11;;;;;;;28.87;20.80;;;;;;;;;;5034624;28;20459;-67
2022/12/26 00:57:38;;;;;;;30.20;21.30;;;;;;;;;;5033938;28;20455;-67
2022/12/26 01:00:06;;;;;;;31.23;22.83;;;;;;;;;;5033859;28;20446;-67
2022/12/26 01:02:38;;;;;;;30.00;21.70;;;;;;;;;;5051046;28;20488;-67
2022/12/26 01:05:05;;;;;;;31.80;20.63;;;;;;;;;;5053767;28;20481;-67
2022/12/26 01:07:34;;;;;;;27.97;20.47;;;;;;;;;;5053473;28;20806;-67
2022/12/26 01:10:01;;;;;;;27.80;20.30;;;;;;;;;;5053321;28;20474;-67
2022/12/26 01:12:29;;;;;;;28.67;19.63;;;;;;;;;;5053499;28;20904;-67
2022/12/26 01:14:56;;;;;;;27.57;19.80;;;;;;;;;;5053715;28;20504;-67
2022/12/26 01:17:23;;;;;;;31.13;19.53;;;;;;;;;;5053346;28;20448;-67
2022/12/26 01:19:52;;;;;;;30.70;19.60;;;;;;;;;;5053181;28;20924;-67
2022/12/26 01:22:19;;;;;;;28.17;20.10;;;;;;;;;;5053292;28;20472;-67
2022/12/26 01:24:46;;;;;;;28.87;20.23;;;;;;;;;;5053374;28;20486;-67
2022/12/26 01:27:14;;;;;;;26.43;20.30;;;;;;;;;;5053530;28;20444;-67
2022/12/26 01:29:41;;;;;;;25.80;17.73;;;;;;;;;;5053582;28;20469;-67
2022/12/26 01:32:08;;;;;;;26.37;18.37;;;;;;;;;;5053493;28;20441;-67
2022/12/26 01:34:35;;;;;;;26.47;20.27;;;;;;;;;;5053719;28;20445;-67
2022/12/26 01:37:04;;;;;;;28.50;18.43;;;;;;;;;;5053486;28;20451;-67
2022/12/26 01:39:31;;;;;;;27.60;19.30;;;;;;;;;;5052952;28;20464;-67
2022/12/26 01:41:58;;;;;;;27.80;19.87;;;;;;;;;;5057062;28;20442;-67
2022/12/26 01:44:44;;;;;;;31.53;19.40;;;;;;;;;;5057095;28;20469;-67
2022/12/26 01:47:11;;;;;;;29.67;19.77;;;;;;;;;;5057630;28;20450;-67
2022/12/26 01:49:41;;;;;;;25.70;19.73;;;;;;;;;;5057137;28;20442;-67
2022/12/26 01:52:11;;;;;;;29.70;21.50;;;;;;;;;;5057519;28;20435;-67
2022/12/26 01:54:41;;;;;;;26.67;20.33;;;;;;;;;;5057527;28;20442;-67
2022/12/26 01:57:11;;;;;;;27.67;19.57;;;;;;;;;;5057465;28;20449;-67
2022/12/26 01:59:40;;;;;;;31.80;22.20;;;;;;;;;;5056920;28;20438;-67
2022/12/26 02:02:07;;;;;;;30.80;22.37;;;;;;;;;;5056906;28;20447;-67
2022/12/26 02:07:23;;;;;;;31.33;20.53;;;;;;;;;;5056947;28;20887;-67
2022/12/26 02:09:50;;;;;;;36.03;21.50;;;;;;;;;;5056612;28;20924;-67
2022/12/26 02:12:20;;;;;;;28.07;20.97;;;;;;;;;;5057178;28;20419;-67
2022/12/26 02:14:48;;;;;;;35.63;22.87;;;;;;;;;;5056874;28;20446;-67
2022/12/26 02:17:15;;;;;;;33.30;21.50;;;;;;;;;;5056953;28;20446;-67
2022/12/26 02:19:48;;;;;;;33.03;21.37;;;;;;;;;;5056800;28;20809;-67
2022/12/26 02:22:30;;;;;;;36.73;21.57;;;;;;;;;;5056984;28;20431;-67
2022/12/26 02:25:10;;;;;;;34.80;22.70;;;;;;;;;;5056996;28;20549;-67
2022/12/26 02:27:47;;;;;;;31.13;22.30;;;;;;;;;;5056777;28;20904;-67
2022/12/26 02:30:25;;;;;;;28.37;21.47;;;;;;;;;;5056967;28;20436;-67
2022/12/26 02:33:03;;;;;;;37.23;21.00;;;;;;;;;;5057070;28;20449;-67
2022/12/26 02:35:42;;;;;;;30.97;21.50;;;;;;;;;;5056840;28;20429;-67
2022/12/26 02:38:12;;;;;;;31.57;21.13;;;;;;;;;;5056298;28;20426;-67
2022/12/26 02:40:46;;;;;;;34.37;22.73;;;;;;;;;;5056706;28;20448;-67
2022/12/26 02:43:18;;;;;;;32.90;23.17;;;;;;;;;;5056566;28;20422;-67
2022/12/26 02:48:40;;;;;;;31.30;20.63;;;;;;;;;;5056169;28;20400;-67
2022/12/26 03:13:36;;;;;;;34.23;23.77;;;;;;;;;;5055684;28;20506;-67
2022/12/26 03:18:53;;;;;;;31.43;20.10;;;;;;;;;;5055557;28;20534;-67
2022/12/26 03:21:23;;;;;;;34.50;22.70;;;;;;;;;;5055332;28;20437;-67
2022/12/26 03:23:51;;;;;;;33.30;20.93;;;;;;;;;;5055318;28;20447;-67
2022/12/26 03:31:49;;;;;;;33.37;22.00;;;;;;;;;;5055280;28;20770;-67
2022/12/26 03:34:18;;;;;;;32.40;21.13;;;;;;;;;;5055519;28;20780;-67
2022/12/26 03:36:55;;;;;;;30.90;21.47;;;;;;;;;;5055296;28;20441;-67
2022/12/26 04:19:22;;;;;;;30.10;18.93;;;;;;;;;;5055475;28;20452;-67
2022/12/26 04:19:25;;;;;;;27.10;18.90;;;;;;;;;;5028710;28;20422;-67
2022/12/26 04:44:23;;;;;;;31.17;21.10;;;;;;;;;;5054009;28;20410;-67
2022/12/26 04:46:51;;;;;;;28.10;18.80;;;;;;;;;;5054144;28;20477;-67
2022/12/26 04:52:05;;;;;;;28.73;19.23;;;;;;;;;;5053867;28;20401;-67
2022/12/26 04:54:32;;;;;;;29.63;19.50;;;;;;;;;;5033343;28;20456;-67
2022/12/26 04:57:01;;;;;;;27.10;19.50;;;;;;;;;;5033403;28;20798;-67
2022/12/26 04:59:28;;;;;;;25.53;15.97;;;;;;;;;;5033988;28;20773;-67
2022/12/26 05:10:16;;;;;;;32.07;18.13;;;;;;;;;;5033448;28;21049;-67
2022/12/26 05:12:44;;;;;;;29.00;18.17;;;;;;;;;;5033087;28;20442;-67
2022/12/26 05:15:12;;;;;;;27.50;17.57;;;;;;;;;;5032783;28;20450;-67
2022/12/26 05:28:55;;;;;;;25.30;16.93;;;;;;;;;;4995066;28;20424;-67
2022/12/26 05:31:22;;;;;;;23.80;16.40;;;;;;;;;;5033755;28;20479;-67
2022/12/26 05:34:07;;;;;;;24.90;16.77;;;;;;;;;;5033337;28;20798;-67
2022/12/26 05:36:36;;;;;;;27.03;17.40;;;;;;;;;;5033470;28;20437;-69
2022/12/26 05:39:04;;;;;;;21.40;16.03;;;;;;;;;;5032953;28;20458;-68
2022/12/26 05:41:31;;;;;;;21.13;16.30;;;;;;;;;;5033738;28;20452;-67
2022/12/26 05:43:59;;;;;;;23.60;15.90;;;;;;;;;;5032915;28;20438;-68
2022/12/26 05:46:27;;;;;;;22.23;16.23;;;;;;;;;;5033347;28;20478;-68
2022/12/26 05:48:54;;;;;;;22.93;16.70;;;;;;;;;;5033068;28;20444;-68
2022/12/26 05:51:21;;;;;;;19.57;14.63;;;;;;;;;;5032964;28;20447;-67
2022/12/26 05:53:49;;;;;;;18.33;14.33;;;;;;;;;;5032705;28;20443;-68
2022/12/26 05:56:16;;;;;;;20.73;15.83;;;;;;;;;;5033487;28;20444;-68
2022/12/26 05:58:44;;;;;;;24.90;15.90;;;;;;;;;;5032724;28;20955;-68
2022/12/26 06:01:13;;;;;;;22.27;16.17;;;;;;;;;;5033458;28;20450;-68
2022/12/26 06:03:42;;;;;;;19.67;14.80;;;;;;;;;;5033157;28;20441;-68
2022/12/26 06:06:09;;;;;;;23.47;16.23;;;;;;;;;;5033051;28;20523;-68
2022/12/26 06:08:36;;;;;;;23.47;15.53;;;;;;;;;;5032727;28;20448;-68
2022/12/26 06:11:04;;;;;;;19.40;14.50;;;;;;;;;;5033187;28;20510;-68
2022/12/26 06:13:32;;;;;;;20.10;16.10;;;;;;;;;;5032640;28;20446;-68
2022/12/26 06:15:59;;;;;;;19.00;14.40;;;;;;;;;;5032693;28;20451;-68
2022/12/26 06:18:28;;;;;;;15.90;13.23;;;;;;;;;;5033111;28;20444;-70
2022/12/26 06:20:55;;;;;;;16.43;13.27;;;;;;;;;;5033039;28;20529;-68
2022/12/26 06:23:22;;;;;;;20.40;13.83;;;;;;;;;;5032764;28;20530;-68
2022/12/26 06:25:54;;;;;;;16.10;13.07;;;;;;;;;;5033260;28;20575;-68
2022/12/26 06:28:21;;;;;;;17.20;13.50;;;;;;;;;;5036771;28;20913;-68
2022/12/26 06:30:48;;;;;;;16.30;12.80;;;;;;;;;;5036603;28;20442;-68
2022/12/26 06:33:15;;;;;;;17.63;13.90;;;;;;;;;;5036520;28;20448;-67
2022/12/26 06:35:45;;;;;;;16.73;12.77;;;;;;;;;;5036436;28;20444;-67
2022/12/26 06:38:12;;;;;;;16.30;12.57;;;;;;;;;;5036412;28;20495;-67
2022/12/26 06:40:40;;;;;;;16.03;13.03;;;;;;;;;;5036522;28;20458;-67
2022/12/26 06:43:07;;;;;;;15.50;12.80;;;;;;;;;;5036023;28;20443;-67
2022/12/26 06:45:34;;;;;;;15.70;11.83;;;;;;;;;;5036299;28;20481;-67
2022/12/26 06:48:02;;;;;;;16.00;11.90;;;;;;;;;;5036364;28;20465;-67
2022/12/26 06:50:29;;;;;;;13.80;11.00;;;;;;;;;;5036452;28;20525;-67
2022/12/26 06:52:57;;;;;;;16.07;13.30;;;;;;;;;;5035932;28;20457;-67
2022/12/26 06:55:25;;;;;;;14.47;11.00;;;;;;;;;;5035861;28;20453;-67
2022/12/26 06:57:53;;;;;;;12.63;10.90;;;;;;;;;;5035763;28;20449;-67
2022/12/26 07:00:20;;;;;;;12.83;11.40;;;;;;;;;;5036069;28;20447;-67
2022/12/26 07:02:51;;;;;;;12.20;10.63;;;;;;;;;;5036037;28;20447;-67
2022/12/26 07:05:18;;;;;;;13.63;12.13;;;;;;;;;;5034713;28;20463;-67
2022/12/26 07:07:50;;;;;;;14.73;11.40;;;;;;;;;;5035993;28;20533;-67
2022/12/26 07:10:19;;;;;;;15.67;11.60;;;;;;;;;;5035635;28;20476;-67
2022/12/26 07:12:46;;;;;;;16.10;11.90;;;;;;;;;;5036541;28;20431;-66
2022/12/26 07:15:13;;;;;;;16.97;11.47;;;;;;;;;;5036023;28;20443;-67
2022/12/26 07:17:40;;;;;;;12.77;11.40;;;;;;;;;;5036231;28;20466;-67
2022/12/26 07:20:08;;;;;;;14.40;10.50;;;;;;;;;;5035744;28;20442;-67
2022/12/26 07:22:35;;;;;;;11.90;10.27;;;;;;;;;;5036201;28;20447;-66
2022/12/26 07:25:03;;;;;;;12.37;11.00;;;;;;;;;;5035512;28;20441;-67
2022/12/26 07:27:31;;;;;;;11.87;10.37;;;;;;;;;;5035238;28;20999;-66
2022/12/26 07:29:58;;;;;;;12.43;10.67;;;;;;;;;;5035201;28;20446;-67
2022/12/26 07:32:26;;;;;;;10.73;9.50;;;;;;;;;;5035537;28;20434;-66
2022/12/26 07:34:53;;;;;;;12.33;11.03;;;;;;;;;;5035424;28;20438;-66
2022/12/26 07:37:20;;;;;;;16.30;10.80;;;;;;;;;;5035483;28;20442;-66
2022/12/26 07:39:47;;;;;;;12.47;10.70;;;;;;;;;;5034681;28;20453;-66
2022/12/26 07:42:14;;;;;;;12.20;11.00;;;;;;;;;;5035035;28;20450;-66
2022/12/26 07:44:43;;;;;;;12.77;10.10;;;;;;;;;;5035571;28;20498;-66
2022/12/26 07:47:10;;;;;;;18.53;12.07;;;;;;;;;;5035427;28;20476;-66
2022/12/26 07:49:37;;;;;;;11.87;10.57;;;;;;;;;;5035101;28;20442;-66
2022/12/26 07:52:04;;;;;;;14.47;10.87;;;;;;;;;;5035414;28;20448;-66
2022/12/26 07:54:31;;;;;;;13.87;11.63;;;;;;;;;;5035038;28;20513;-66
2022/12/26 07:56:59;;;;;;;13.60;11.20;;;;;;;;;;5034746;28;20962;-66
2022/12/26 07:59:26;;;;;;;14.73;11.83;;;;;;;;;;5035204;28;20799;-66
2022/12/26 08:01:56;;;;;;;16.00;11.93;;;;;;;;;;5035215;28;20449;-66
2022/12/26 08:04:23;;;;;;;16.63;12.83;;;;;;;;;;5035390;28;20515;-66
2022/12/26 08:06:51;;;;;;;15.30;12.40;;;;;;;;;;5034807;28;20552;-66
2022/12/26 08:09:18;;;;;;;16.03;12.70;;;;;;;;;;5034811;28;20546;-67
2022/12/26 08:11:46;;;;;;;16.93;13.30;;;;;;;;;;5034387;28;20481;-67
2022/12/26 08:14:15;;;;;;;15.17;11.83;;;;;;;;;;5034852;28;20470;-67
2022/12/26 08:16:42;;;;;;;14.80;12.60;;;;;;;;;;5033622;28;20451;-68
2022/12/26 08:19:11;;;;;;;15.60;11.73;;;;;;;;;;5033779;28;20534;-67
2022/12/26 08:21:38;;;;;;;13.93;10.87;;;;;;;;;;5034222;28;20449;-67
2022/12/26 08:24:06;;;;;;;14.30;12.20;;;;;;;;;;5034392;28;20451;-67
2022/12/26 08:26:33;;;;;;;13.30;10.67;;;;;;;;;;5034344;28;20478;-67
2022/12/26 08:29:00;;;;;;;15.07;10.47;;;;;;;;;;5033937;28;20450;-67
2022/12/26 08:31:27;;;;;;;11.17;9.97;;;;;;;;;;5034108;28;20932;-66
2022/12/26 08:33:55;;;;;;;11.70;9.50;;;;;;;;;;5034393;28;20461;-67
2022/12/26 08:36:24;;;;;;;11.27;9.47;;;;;;;;;;5033910;28;20443;-67
2022/12/26 08:38:51;;;;;;;9.90;8.90;;;;;;;;;;5033749;28;20455;-66
2022/12/26 08:41:18;;;;;;;11.73;9.00;;;;;;;;;;5034052;28;20447;-66
2022/12/26 08:43:48;;;;;;;9.67;8.63;;;;;;;;;;5034115;28;20443;-66
2022/12/26 08:46:16;;;;;;;9.57;8.07;;;;;;;;;;5034051;28;20501;-66
2022/12/26 08:48:43;;;;;;;11.93;8.87;;;;;;;;;;5033816;28;20446;-66
2022/12/26 08:51:12;;;;;;;9.63;7.40;;;;;;;;;;5033480;28;20453;-66
2022/12/26 08:53:40;;;;;;;9.33;6.87;;;;;;;;;;5033935;28;20446;-66
2022/12/26 08:56:08;;;;;;;7.73;6.83;;;;;;;;;;5033943;28;20432;-66
2022/12/26 08:58:35;;;;;;;10.00;6.40;;;;;;;;;;5033849;28;20529;-66
2022/12/26 09:01:10;;;;;;;6.30;5.70;;;;;;;;;;5033272;28;20442;-66
2022/12/26 09:03:37;;;;;;;7.00;6.30;;;;;;;;;;5033720;28;20534;-67
2022/12/26 09:06:05;;;;;;;7.17;5.60;;;;;;;;;;5033307;28;20478;-66
2022/12/26 09:08:33;;;;;;;6.00;5.40;;;;;;;;;;5033690;28;20445;-66
2022/12/26 09:11:04;;;;;;;6.10;5.50;;;;;;;;;;5032858;28;20474;-66
2022/12/26 09:13:31;;;;;;;10.93;5.83;;;;;;;;;;5033317;28;20432;-66
2022/12/26 09:16:04;;;;;;;6.10;5.60;;;;;;;;;;5033230;28;20435;-66
2022/12/26 09:18:31;;;;;;;6.53;5.87;;;;;;;;;;5033311;28;20940;-67
2022/12/26 09:21:00;;;;;;;6.33;5.73;;;;;;;;;;5033377;28;20796;-67
2022/12/26 09:23:27;;;;;;;9.13;5.20;;;;;;;;;;5033521;28;20436;-66
2022/12/26 09:25:54;;;;;;;5.40;4.30;;;;;;;;;;5032993;28;20929;-66
2022/12/26 09:28:23;;;;;;;6.90;5.30;;;;;;;;;;5033528;28;20937;-66
2022/12/26 09:30:50;;;;;;;4.47;4.07;;;;;;;;;;5033249;28;20435;-67
2022/12/26 09:33:17;;;;;;;5.70;3.80;;;;;;;;;;5033436;28;20450;-66
2022/12/26 09:35:44;;;;;;;4.50;4.10;;;;;;;;;;5033115;28;20443;-67
2022/12/26 09:38:12;;;;;;;7.73;4.50;;;;;;;;;;5033570;28;20444;-67
2022/12/26 09:40:46;;;;;;;3.60;3.30;;;;;;;;;;5032853;28;20455;-67
2022/12/26 09:43:20;;;;;;;3.40;3.20;;;;;;;;;;5033399;28;20881;-67
2022/12/26 09:45:57;;;;;;;4.27;3.77;;;;;;;;;;5033050;28;20442;-67
2022/12/26 09:48:27;;;;;;;4.93;3.83;;;;;;;;;;5033353;28;20482;-67
2022/12/26 09:50:55;;;;;;;9.03;4.20;;;;;;;;;;5033234;28;20436;-67
2022/12/26 09:53:26;;;;;;;7.90;3.03;;;;;;;;;;5032961;28;20446;-66
2022/12/26 09:55:56;;;;;;;6.37;2.93;;;;;;;;;;5032896;28;20510;-67
2022/12/26 09:58:26;;;;;;;2.83;2.60;;;;;;;;;;5034275;28;20459;-67
2022/12/26 10:00:57;;;;;;;3.90;3.20;;;;;;;;;;5053335;28;20484;-66
2022/12/26 10:03:25;;;;;;;3.60;3.20;;;;;;;;;;5057070;28;20448;-67
2022/12/26 10:05:58;;;;;;;5.37;3.43;;;;;;;;;;5056873;28;20437;-67
2022/12/26 10:08:29;;;;;;;6.00;3.53;;;;;;;;;;5056996;28;20443;-67
2022/12/26 10:11:00;;;;;;;3.97;3.57;;;;;;;;;;5056708;28;20477;-67
2022/12/26 10:13:30;;;;;;;4.80;2.50;;;;;;;;;;5056971;28;20510;-67
2022/12/26 10:16:00;;;;;;;3.30;3.00;;;;;;;;;;5056378;28;20454;-67
2022/12/26 10:18:32;;;;;;;8.20;3.53;;;;;;;;;;5040651;28;20530;-67
2022/12/26 10:21:15;;;;;;;3.07;2.87;;;;;;;;;;5036317;28;20912;-67
2022/12/26 10:23:44;;;;;;;3.47;3.20;;;;;;;;;;5036930;28;20780;-67
2022/12/26 10:26:13;;;;;;;2.63;2.40;;;;;;;;;;5036248;28;20440;-67
2022/12/26 10:28:42;;;;;;;2.83;2.63;;;;;;;;;;5036352;28;21002;-67
2022/12/26 10:31:14;;;;;;;5.77;3.00;;;;;;;;;;5036445;28;20443;-67
2022/12/26 10:33:44;;;;;;;4.70;2.97;;;;;;;;;;5036700;28;20526;-67
2022/12/26 10:36:17;;;;;;;2.67;2.27;;;;;;;;;;5036590;28;20450;-66
2022/12/26 10:38:46;;;;;;;4.20;2.60;;;;;;;;;;5036061;28;20439;-67
2022/12/26 10:41:14;;;;;;;7.07;2.90;;;;;;;;;;5036224;28;20443;-66
2022/12/26 10:43:43;;;;;;;5.50;3.33;;;;;;;;;;5036070;28;20455;-67
2022/12/26 10:46:23;;;;;;;5.67;3.03;;;;;;;;;;5036264;28;20445;-67
2022/12/26 10:48:50;;;;;;;5.77;2.97;;;;;;;;;;5036000;28;20440;-67
2022/12/26 10:51:18;;;;;;;10.90;3.10;;;;;;;;;;5036230;28;20530;-67
2022/12/26 10:53:49;;;;;;;4.43;3.40;;;;;;;;;;5035890;28;20456;-67
2022/12/26 10:56:16;;;;;;;3.97;2.73;;;;;;;;;;5036474;28;20433;-67
2022/12/26 10:58:44;;;;;;;5.07;2.90;;;;;;;;;;5035929;28;20986;-67
2022/12/26 11:01:29;;;;;;;3.70;2.70;;;;;;;;;;5035925;28;20448;-67
2022/12/26 11:03:58;;;;;;;7.87;2.43;;;;;;;;;;5036261;28;20454;-67
2022/12/26 11:06:27;;;;;;;6.20;2.93;;;;;;;;;;5035692;28;20956;-67
2022/12/26 11:08:55;;;;;;;5.50;2.90;;;;;;;;;;5035974;28;20450;-67
2022/12/26 11:11:24;;;;;;;3.77;2.70;;;;;;;;;;5035997;28;20536;-67
2022/12/26 11:13:53;;;;;;;10.00;4.00;;;;;;;;;;5034570;28;20448;-67
2022/12/26 11:16:26;;;;;;;3.50;2.93;;;;;;;;;;5035439;28;20439;-67
2022/12/26 11:18:53;;;;;;;4.13;2.47;;;;;;;;;;5035587;28;20430;-67
2022/12/26 11:21:24;;;;;;;5.30;2.20;;;;;;;;;;5035958;28;20469;-66
2022/12/26 11:23:52;;;;;;;2.70;2.50;;;;;;;;;;5036312;28;20439;-66
2022/12/26 11:26:21;;;;;;;2.67;2.47;;;;;;;;;;5035964;28;20470;-67
2022/12/26 11:28:48;;;;;;;5.03;2.40;;;;;;;;;;5035575;28;20478;-66
2022/12/26 11:31:23;;;;;;;6.97;2.33;;;;;;;;;;5036169;28;20456;-66
2022/12/26 11:33:51;;;;;;;4.10;3.10;;;;;;;;;;5035324;28;20436;-66
2022/12/26 11:36:19;;;;;;;6.20;2.93;;;;;;;;;;5035819;28;20451;-66
2022/12/26 11:38:50;;;;;;;6.53;2.20;;;;;;;;;;5034991;28;20554;-66
2022/12/26 11:41:31;;;;;;;3.80;2.40;;;;;;;;;;5035491;28;20936;-66
2022/12/26 11:44:03;;;;;;;4.13;2.20;;;;;;;;;;5035852;28;20432;-66
2022/12/26 11:46:35;;;;;;;2.20;2.00;;;;;;;;;;5035567;28;20427;-66
2022/12/26 11:49:02;;;;;;;5.67;2.63;;;;;;;;;;5034941;28;20447;-67
2022/12/26 11:51:38;;;;;;;5.20;3.23;;;;;;;;;;5035700;28;20450;-66
2022/12/26 11:54:23;;;;;;;5.13;2.13;;;;;;;;;;5035192;28;20781;-67
2022/12/26 11:57:00;;;;;;;6.87;2.60;;;;;;;;;;5035031;28;20480;-68
2022/12/26 11:59:27;;;;;;;2.30;2.10;;;;;;;;;;5035673;28;20529;-68
2022/12/26 12:02:15;;;;;;;3.60;2.50;;;;;;;;;;5034644;28;20479;-68
2022/12/26 12:04:43;;;;;;;8.73;2.83;;;;;;;;;;5035158;28;20439;-68
2022/12/26 12:07:15;;;;;;;4.77;3.40;;;;;;;;;;5034789;28;20494;-68
2022/12/26 12:09:46;;;;;;;4.73;2.60;;;;;;;;;;5035117;28;20446;-68
2022/12/26 12:12:19;;;;;;;3.87;2.80;;;;;;;;;;5034925;28;20431;-68
2022/12/26 12:14:54;;;;;;;3.57;2.73;;;;;;;;;;5035189;28;20440;-68
2022/12/26 12:17:25;;;;;;;5.20;2.50;;;;;;;;;;5034680;28;20452;-68
2022/12/26 12:20:08;;;;;;;4.00;2.43;;;;;;;;;;5034785;28;20438;-68
2022/12/26 12:22:48;;;;;;;2.57;2.37;;;;;;;;;;5035073;28;20446;-68
2022/12/26 12:25:26;;;;;;;5.43;2.73;;;;;;;;;;5034356;28;20435;-68
2022/12/26 12:27:58;;;;;;;8.33;2.97;;;;;;;;;;5033191;28;20892;-69
2022/12/26 12:30:28;;;;;;;3.47;2.67;;;;;;;;;;5034624;28;20432;-68
2022/12/26 12:33:04;;;;;;;2.20;2.00;;;;;;;;;;5034543;28;20443;-68
2022/12/26 12:35:37;;;;;;;3.17;2.00;;;;;;;;;;5034263;28;20434;-69
2022/12/26 12:38:14;;;;;;;2.33;1.90;;;;;;;;;;5034198;28;20430;-70
2022/12/26 12:40:47;;;;;;;3.97;2.07;;;;;;;;;;5034763;28;20472;-70
2022/12/26 12:43:18;;;;;;;5.70;2.30;;;;;;;;;;5034240;28;20445;-69
2022/12/26 12:45:49;;;;;;;6.80;2.70;;;;;;;;;;5034181;28;20431;-69
2022/12/26 12:48:22;;;;;;;5.57;2.70;;;;;;;;;;5033974;28;20476;-69
2022/12/26 12:50:54;;;;;;;3.07;2.57;;;;;;;;;;5033716;28;20435;-69
2022/12/26 12:53:24;;;;;;;5.90;3.30;;;;;;;;;;5034209;28;20441;-69
2022/12/26 12:56:06;;;;;;;6.00;3.22;;;;;;;;;;5033678;28;20435;-69
2022/12/26 12:58:37;;;;;;;3.57;3.00;;;;;;;;;;5033501;28;20195;-69
2022/12/26 13:01:06;;;;;;;4.97;3.50;;;;;;;;;;5033867;28;20466;-69
2022/12/26 13:03:38;;;;;;;4.20;3.53;;;;;;;;;;5033502;28;20485;-69
2022/12/26 13:06:09;;;;;;;6.50;3.70;;;;;;;;;;5033574;28;20187;-69
2022/12/26 13:08:39;;;;;;;8.60;3.40;;;;;;;;;;5033543;28;20476;-69
2022/12/26 13:11:11;;;;;;;12.65;3.72;;;;;;;;;;5033336;28;20470;-69
2022/12/26 13:13:41;;;;;;;7.50;2.70;;;;;;;;;;5033648;28;20188;-68
2022/12/26 13:16:11;;;;;;;7.50;3.45;;;;;;;;;;5033415;28;20452;-69
2022/12/26 13:18:40;;;;;;;7.63;2.85;;;;;;;;;;5033516;28;20294;-69
2022/12/26 13:21:09;;;;;;;12.95;3.83;;;;;;;;;;5033276;28;20204;-68
2022/12/26 13:26:35;;;;;;;7.90;2.63;;;;;;;;;;5033471;28;20293;-68
2022/12/26 13:29:04;;;;;;;5.85;3.40;;;;;;;;;;5033577;28;20982;-68
2022/12/26 13:31:33;;;;;;;9.57;2.55;;;;;;;;;;5033185;28;20207;-68
2022/12/26 13:34:01;;;;;;;5.45;2.88;;;;;;;;;;5033075;28;20195;-68
2022/12/26 13:36:36;;;;;;;4.55;2.30;;;;;;;;;;5032816;28;20290;-68
2022/12/26 13:39:36;;;;;;;7.37;4.37;;;;;;;;;;5032966;28;20202;-68
2022/12/26 13:45:26;;;;;;;7.80;2.92;;;;;;;;;;5033195;28;20220;-70
2022/12/26 13:47:54;;;;;;;6.28;2.92;;;;;;;;;;5033045;28;20219;-68
2022/12/26 13:50:40;;;;;;;8.18;2.45;;;;;;;;;;5032117;28;20317;-67
2022/12/26 13:53:26;;;;;;;9.80;2.72;;;;;;;;;;5033140;28;20198;-68
2022/12/26 13:55:55;;;;;;;5.03;2.80;;;;;;;;;;5033254;28;20194;-68
2022/12/26 13:58:28;;;;;;;12.20;2.65;;;;;;;;;;5032860;28;20322;-68
2022/12/26 14:00:58;;;;;;;5.53;2.35;;;;;;;;;;5033622;28;20195;-67
2022/12/26 14:03:35;;;;;;;6.40;2.55;;;;;;;;;;5033451;28;20294;-67
2022/12/26 14:06:20;;;;;;;4.03;2.83;;;;;;;;;;5033124;28;20223;-68
2022/12/26 14:08:55;;;;;;;4.72;2.20;;;;;;;;;;5033072;28;20211;-67
2022/12/26 14:11:33;;;;;;;4.38;2.53;;;;;;;;;;5032895;28;20219;-67
2022/12/26 14:14:09;;;;;;;6.10;2.88;;;;;;;;;;5032642;28;20183;-67
2022/12/26 14:16:40;;;;;;;4.50;2.53;;;;;;;;;;5033204;28;20628;-67
2022/12/26 14:19:13;;;;;;;7.70;2.85;;;;;;;;;;5033102;28;20191;-67
2022/12/26 14:21:49;;;;;;;6.05;3.35;;;;;;;;;;5032664;28;20191;-67
2022/12/26 14:24:24;;;;;;;6.65;2.88;;;;;;;;;;5033268;28;20188;-67
2022/12/26 14:26:54;;;;;;;7.03;2.75;;;;;;;;;;5033024;28;20284;-67
2022/12/26 14:29:24;;;;;;;8.50;3.15;;;;;;;;;;5032561;28;20776;-67
2022/12/26 14:32:07;;;;;;;7.32;2.58;;;;;;;;;;5032777;28;20198;-67
2022/12/26 14:34:45;;;;;;;3.47;3.10;;;;;;;;;;5033266;28;20184;-67
2022/12/26 14:37:17;;;;;;;5.70;3.00;;;;;;;;;;5033083;28;20190;-67
2022/12/26 14:39:58;;;;;;;3.42;2.30;;;;;;;;;;5033008;28;20537;-67
2022/12/26 14:45:36;;;;;;;7.90;2.92;;;;;;;;;;5032557;28;20233;-67
2022/12/26 14:48:04;;;;;;;6.10;2.80;;;;;;;;;;5034503;28;20298;-67
2022/12/26 14:50:37;;;;;;;4.35;2.83;;;;;;;;;;5036144;28;20230;-67
2022/12/26 14:53:28;;;;;;;5.43;3.40;;;;;;;;;;5036633;28;20191;-66
2022/12/26 14:55:56;;;;;;;9.38;3.47;;;;;;;;;;5036123;28;20186;-67
2022/12/26 14:58:28;;;;;;;4.60;2.60;;;;;;;;;;5036174;28;20210;-66
2022/12/26 15:00:56;;;;;;;3.60;2.70;;;;;;;;;;5035710;28;20195;-66
2022/12/26 15:03:40;;;;;;;16.53;3.37;;;;;;;;;;5035728;28;20206;-66
2022/12/26 15:06:23;;;;;;;6.20;2.75;;;;;;;;;;5035884;28;20436;-66
2022/12/26 15:08:59;;;;;;;5.13;2.70;;;;;;;;;;5035850;28;20298;-67
2022/12/26 15:11:41;;;;;;;3.50;2.47;;;;;;;;;;5035697;28;20477;-66
2022/12/26 15:14:20;;;;;;;7.80;2.90;;;;;;;;;;5034366;28;20206;-67
2022/12/26 15:17:05;;;;;;;4.53;2.80;;;;;;;;;;5035727;28;20222;-66
2022/12/26 15:19:52;;;;;;;6.00;2.70;;;;;;;;;;5035537;28;20282;-67
2022/12/26 15:22:29;;;;;;;6.85;2.90;;;;;;;;;;5035589;28;20191;-66
2022/12/26 15:25:07;;;;;;;11.60;3.20;;;;;;;;;;5035124;28;20184;-67
2022/12/26 15:27:47;;;;;;;9.13;3.35;;;;;;;;;;5035449;28;20193;-66
2022/12/26 15:30:17;;;;;;;5.05;2.50;;;;;;;;;;5035153;28;20208;-67
2022/12/26 15:32:49;;;;;;;2.72;2.35;;;;;;;;;;5035080;28;20193;-67
2022/12/26 15:35:20;;;;;;;7.00;3.30;;;;;;;;;;5035562;28;20187;-67
2022/12/26 15:38:05;;;;;;;8.63;3.43;;;;;;;;;;5035095;28;20384;-67
2022/12/26 15:40:36;;;;;;;4.17;2.40;;;;;;;;;;5034982;28;20536;-67
2022/12/26 15:43:13;;;;;;;7.97;3.55;;;;;;;;;;5035201;28;20445;-67
2022/12/26 15:45:46;;;;;;;3.83;2.80;;;;;;;;;;5035186;28;20211;-67
2022/12/26 15:48:20;;;;;;;11.07;3.33;;;;;;;;;;5035173;28;20218;-67
2022/12/26 15:50:52;;;;;;;8.52;3.38;;;;;;;;;;5035047;28;20448;-67
2022/12/26 15:53:26;;;;;;;10.80;4.40;;;;;;;;;;5035272;28;20194;-67
2022/12/26 15:56:08;;;;;;;5.72;3.30;;;;;;;;;;5034884;28;20184;-67
2022/12/26 15:58:42;;;;;;;9.65;4.32;;;;;;;;;;5034723;28;20192;-67
2022/12/26 16:01:10;;;;;;;7.00;3.33;;;;;;;;;;5034507;28;20270;-67
2022/12/26 16:03:42;;;;;;;9.40;4.22;;;;;;;;;;5034398;28;20446;-67
2022/12/26 16:06:20;;;;;;;11.23;3.42;;;;;;;;;;5034287;28;20198;-67
2022/12/26 16:09:03;;;;;;;3.00;2.55;;;;;;;;;;5034293;28;20213;-67
2022/12/26 16:11:42;;;;;;;9.25;3.08;;;;;;;;;;5034540;28;20226;-67
2022/12/26 16:14:14;;;;;;;6.38;2.80;;;;;;;;;;5034305;28;20229;-67
2022/12/26 16:16:41;;;;;;;5.22;4.15;;;;;;;;;;5034730;28;20194;-67
2022/12/26 16:19:18;;;;;;;6.30;2.70;;;;;;;;;;5034149;28;20664;-67
2022/12/26 16:24:32;;;;;;;10.73;3.15;;;;;;;;;;5034209;28;20270;-67
2022/12/26 16:27:02;;;;;;;4.88;2.80;;;;;;;;;;5033874;28;20205;-67
2022/12/26 16:29:30;;;;;;;8.45;2.92;;;;;;;;;;5034136;28;20225;-67
2022/12/26 16:32:02;;;;;;;4.50;3.42;;;;;;;;;;5033647;28;20645;-66
2022/12/26 16:34:32;;;;;;;5.65;2.40;;;;;;;;;;5034660;28;20194;-66
2022/12/26 16:36:59;;;;;;;11.70;3.10;;;;;;;;;;5033818;28;20209;-66
2022/12/26 16:39:26;;;;;;;5.25;2.90;;;;;;;;;;5034222;28;20196;-66
2022/12/26 16:42:04;;;;;;;9.55;2.83;;;;;;;;;;5033747;28;20198;-66
2022/12/26 16:44:35;;;;;;;5.75;2.67;;;;;;;;;;5033817;28;20179;-66
2022/12/26 16:47:03;;;;;;;11.15;3.65;;;;;;;;;;5033720;28;20675;-66
2022/12/26 16:49:31;;;;;;;5.25;2.85;;;;;;;;;;5034109;28;20306;-66
2022/12/26 16:51:59;;;;;;;5.00;2.85;;;;;;;;;;5033568;28;20233;-66
2022/12/26 16:54:27;;;;;;;11.07;3.10;;;;;;;;;;5033938;28;20544;-66
2022/12/26 16:56:58;;;;;;;5.50;3.10;;;;;;;;;;5033520;28;20195;-66
2022/12/26 16:59:29;;;;;;;5.68;2.65;;;;;;;;;;5033929;28;20195;-66
2022/12/26 17:01:57;;;;;;;4.85;2.58;;;;;;;;;;5033958;28;20219;-66